sensor_id;sensor_type;location;lat;lon;timestamp;pressure;altitude;pressure_sealevel;temperature
70533;BMP180;58088;51.186;17.130;2024-03-02T00:00:23;99511.80;;;13.40
70533;BMP180;58088;51.186;17.130;2024-03-02T00:02:51;99508.00;;;13.40
70533;BMP180;58088;51.186;17.130;2024-03-02T00:05:21;99506.40;;;13.40
70533;BMP180;58088;51.186;17.130;2024-03-02T00:07:57;99500.00;;;13.40
70533;BMP180;58088;51.186;17.130;2024-03-02T00:10:26;99498.00;;;13.34
70533;BMP180;58088;51.186;17.130;2024-03-02T00:12:57;99501.60;;;13.30
70533;BMP180;58088;51.186;17.130;2024-03-02T00:17:57;99495.20;;;13.36
70533;BMP180;58088;51.186;17.130;2024-03-02T00:20:25;99499.20;;;13.30
70533;BMP180;58088;51.186;17.130;2024-03-02T00:23:06;99495.40;;;13.30
70533;BMP180;58088;51.186;17.130;2024-03-02T00:25:53;99501.20;;;13.30
70533;BMP180;58088;51.186;17.130;2024-03-02T00:28:23;99494.60;;;13.30
70533;BMP180;58088;51.186;17.130;2024-03-02T00:31:05;99492.00;;;13.26
70533;BMP180;58088;51.186;17.130;2024-03-02T00:33:37;99496.00;;;13.30
70533;BMP180;58088;51.186;17.130;2024-03-02T00:36:07;99493.60;;;13.26
70533;BMP180;58088;51.186;17.130;2024-03-02T00:38:44;99496.40;;;13.20
70533;BMP180;58088;51.186;17.130;2024-03-02T00:41:27;99487.20;;;13.20
70533;BMP180;58088;51.186;17.130;2024-03-02T00:44:06;99490.80;;;13.20
70533;BMP180;58088;51.186;17.130;2024-03-02T00:46:40;99477.80;;;13.20
70533;BMP180;58088;51.186;17.130;2024-03-02T00:49:18;99478.80;;;13.24
70533;BMP180;58088;51.186;17.130;2024-03-02T00:51:48;99476.60;;;13.24
70533;BMP180;58088;51.186;17.130;2024-03-02T00:54:19;99474.80;;;13.20
70533;BMP180;58088;51.186;17.130;2024-03-02T00:56:47;99481.40;;;13.20
70533;BMP180;58088;51.186;17.130;2024-03-02T00:59:14;99488.40;;;13.20
70533;BMP180;58088;51.186;17.130;2024-03-02T01:01:40;99487.40;;;13.20
70533;BMP180;58088;51.186;17.130;2024-03-02T01:04:08;99482.60;;;13.20
70533;BMP180;58088;51.186;17.130;2024-03-02T01:06:37;99480.80;;;13.20
70533;BMP180;58088;51.186;17.130;2024-03-02T01:09:04;99481.20;;;13.20
70533;BMP180;58088;51.186;17.130;2024-03-02T01:11:30;99477.00;;;13.20
70533;BMP180;58088;51.186;17.130;2024-03-02T01:13:56;99480.60;;;13.20
70533;BMP180;58088;51.186;17.130;2024-03-02T01:16:23;99486.60;;;13.20
70533;BMP180;58088;51.186;17.130;2024-03-02T01:18:49;99484.40;;;13.20
70533;BMP180;58088;51.186;17.130;2024-03-02T01:21:15;99483.40;;;13.20
70533;BMP180;58088;51.186;17.130;2024-03-02T01:23:41;99484.40;;;13.20
70533;BMP180;58088;51.186;17.130;2024-03-02T01:26:08;99488.60;;;13.20
70533;BMP180;58088;51.186;17.130;2024-03-02T01:28:34;99485.80;;;13.14
70533;BMP180;58088;51.186;17.130;2024-03-02T01:31:00;99478.00;;;13.10
70533;BMP180;58088;51.186;17.130;2024-03-02T01:33:27;99488.40;;;13.10
70533;BMP180;58088;51.186;17.130;2024-03-02T01:35:54;99483.80;;;13.04
70533;BMP180;58088;51.186;17.130;2024-03-02T01:38:20;99484.00;;;13.00
70533;BMP180;58088;51.186;17.130;2024-03-02T01:40:46;99483.20;;;13.00
70533;BMP180;58088;51.186;17.130;2024-03-02T01:43:12;99484.80;;;13.00
70533;BMP180;58088;51.186;17.130;2024-03-02T01:45:39;99482.40;;;13.00
70533;BMP180;58088;51.186;17.130;2024-03-02T01:48:06;99489.00;;;12.92
70533;BMP180;58088;51.186;17.130;2024-03-02T01:50:34;99488.00;;;12.90
70533;BMP180;58088;51.186;17.130;2024-03-02T01:53:01;99492.00;;;12.90
70533;BMP180;58088;51.186;17.130;2024-03-02T01:55:30;99490.80;;;12.90
70533;BMP180;58088;51.186;17.130;2024-03-02T01:57:57;99481.40;;;12.90
70533;BMP180;58088;51.186;17.130;2024-03-02T02:00:24;99484.60;;;12.90
70533;BMP180;58088;51.186;17.130;2024-03-02T02:02:53;99480.80;;;12.80
70533;BMP180;58088;51.186;17.130;2024-03-02T02:05:20;99488.60;;;12.80
70533;BMP180;58088;51.186;17.130;2024-03-02T02:07:47;99488.60;;;12.80
70533;BMP180;58088;51.186;17.130;2024-03-02T02:10:13;99488.80;;;12.80
70533;BMP180;58088;51.186;17.130;2024-03-02T02:12:39;99484.20;;;12.80
70533;BMP180;58088;51.186;17.130;2024-03-02T02:15:28;99483.80;;;12.80
70533;BMP180;58088;51.186;17.130;2024-03-02T02:17:56;99485.20;;;12.80
70533;BMP180;58088;51.186;17.130;2024-03-02T02:20:23;99486.60;;;12.80
70533;BMP180;58088;51.186;17.130;2024-03-02T02:23:01;99485.00;;;12.70
70533;BMP180;58088;51.186;17.130;2024-03-02T02:25:29;99480.80;;;12.70
70533;BMP180;58088;51.186;17.130;2024-03-02T02:27:56;99485.00;;;12.70
70533;BMP180;58088;51.186;17.130;2024-03-02T02:30:27;99477.60;;;12.70
70533;BMP180;58088;51.186;17.130;2024-03-02T02:32:54;99476.80;;;12.70
70533;BMP180;58088;51.186;17.130;2024-03-02T02:35:20;99474.20;;;12.70
70533;BMP180;58088;51.186;17.130;2024-03-02T02:37:47;99469.60;;;12.70
70533;BMP180;58088;51.186;17.130;2024-03-02T02:40:14;99464.20;;;12.68
70533;BMP180;58088;51.186;17.130;2024-03-02T02:42:41;99457.40;;;12.64
70533;BMP180;58088;51.186;17.130;2024-03-02T02:45:08;99454.00;;;12.60
70533;BMP180;58088;51.186;17.130;2024-03-02T02:47:34;99450.80;;;12.60
70533;BMP180;58088;51.186;17.130;2024-03-02T02:50:04;99449.00;;;12.60
70533;BMP180;58088;51.186;17.130;2024-03-02T02:52:35;99442.80;;;12.60
70533;BMP180;58088;51.186;17.130;2024-03-02T02:55:08;99437.60;;;12.50
70533;BMP180;58088;51.186;17.130;2024-03-02T02:57:36;99438.20;;;12.50
70533;BMP180;58088;51.186;17.130;2024-03-02T03:00:24;99434.80;;;12.50
70533;BMP180;58088;51.186;17.130;2024-03-02T03:03:09;99443.40;;;12.40
70533;BMP180;58088;51.186;17.130;2024-03-02T03:05:35;99443.40;;;12.40
70533;BMP180;58088;51.186;17.130;2024-03-02T03:08:01;99443.80;;;12.40
70533;BMP180;58088;51.186;17.130;2024-03-02T03:10:27;99451.60;;;12.30
70533;BMP180;58088;51.186;17.130;2024-03-02T03:12:56;99457.20;;;12.30
70533;BMP180;58088;51.186;17.130;2024-03-02T03:15:23;99453.60;;;12.30
70533;BMP180;58088;51.186;17.130;2024-03-02T03:17:50;99461.80;;;12.20
70533;BMP180;58088;51.186;17.130;2024-03-02T03:20:17;99462.20;;;12.20
70533;BMP180;58088;51.186;17.130;2024-03-02T03:22:44;99459.80;;;12.20
70533;BMP180;58088;51.186;17.130;2024-03-02T03:25:12;99465.40;;;12.20
70533;BMP180;58088;51.186;17.130;2024-03-02T03:27:39;99469.80;;;12.20
70533;BMP180;58088;51.186;17.130;2024-03-02T03:30:07;99471.40;;;12.30
70533;BMP180;58088;51.186;17.130;2024-03-02T03:32:34;99472.00;;;12.24
70533;BMP180;58088;51.186;17.130;2024-03-02T03:35:02;99467.20;;;12.30
70533;BMP180;58088;51.186;17.130;2024-03-02T03:37:30;99473.00;;;12.30
70533;BMP180;58088;51.186;17.130;2024-03-02T03:40:01;99475.80;;;12.30
70533;BMP180;58088;51.186;17.130;2024-03-02T03:42:30;99477.80;;;12.30
70533;BMP180;58088;51.186;17.130;2024-03-02T03:44:57;99477.20;;;12.30
70533;BMP180;58088;51.186;17.130;2024-03-02T03:47:24;99476.20;;;12.30
70533;BMP180;58088;51.186;17.130;2024-03-02T03:49:51;99474.20;;;12.40
70533;BMP180;58088;51.186;17.130;2024-03-02T03:52:19;99477.20;;;12.40
70533;BMP180;58088;51.186;17.130;2024-03-02T03:54:47;99472.00;;;12.50
70533;BMP180;58088;51.186;17.130;2024-03-02T03:57:13;99469.00;;;12.50
70533;BMP180;58088;51.186;17.130;2024-03-02T03:59:39;99460.00;;;12.50
70533;BMP180;58088;51.186;17.130;2024-03-02T04:02:05;99466.00;;;12.50
70533;BMP180;58088;51.186;17.130;2024-03-02T04:04:32;99467.20;;;12.40
70533;BMP180;58088;51.186;17.130;2024-03-02T04:06:59;99472.60;;;12.40
70533;BMP180;58088;51.186;17.130;2024-03-02T04:09:25;99473.80;;;12.40
70533;BMP180;58088;51.186;17.130;2024-03-02T04:11:52;99470.20;;;12.40
70533;BMP180;58088;51.186;17.130;2024-03-02T04:14:18;99472.40;;;12.40
70533;BMP180;58088;51.186;17.130;2024-03-02T04:16:44;99476.40;;;12.40
70533;BMP180;58088;51.186;17.130;2024-03-02T04:19:11;99476.60;;;12.40
70533;BMP180;58088;51.186;17.130;2024-03-02T04:21:37;99475.40;;;12.40
70533;BMP180;58088;51.186;17.130;2024-03-02T04:24:04;99476.00;;;12.40
70533;BMP180;58088;51.186;17.130;2024-03-02T04:26:30;99477.00;;;12.40
70533;BMP180;58088;51.186;17.130;2024-03-02T04:28:56;99476.60;;;12.40
70533;BMP180;58088;51.186;17.130;2024-03-02T04:31:22;99482.00;;;12.40
70533;BMP180;58088;51.186;17.130;2024-03-02T04:33:48;99480.20;;;12.40
70533;BMP180;58088;51.186;17.130;2024-03-02T04:36:15;99479.80;;;12.40
70533;BMP180;58088;51.186;17.130;2024-03-02T04:38:41;99481.60;;;12.40
70533;BMP180;58088;51.186;17.130;2024-03-02T04:41:07;99472.60;;;12.40
70533;BMP180;58088;51.186;17.130;2024-03-02T04:43:34;99477.60;;;12.40
70533;BMP180;58088;51.186;17.130;2024-03-02T04:46:01;99472.80;;;12.40
70533;BMP180;58088;51.186;17.130;2024-03-02T04:48:27;99485.00;;;12.40
70533;BMP180;58088;51.186;17.130;2024-03-02T04:50:53;99480.20;;;12.40
70533;BMP180;58088;51.186;17.130;2024-03-02T04:53:19;99480.00;;;12.32
70533;BMP180;58088;51.186;17.130;2024-03-02T04:55:45;99479.80;;;12.30
70533;BMP180;58088;51.186;17.130;2024-03-02T04:58:31;99487.20;;;12.30
70533;BMP180;58088;51.186;17.130;2024-03-02T05:00:57;99491.80;;;12.40
70533;BMP180;58088;51.186;17.130;2024-03-02T05:03:24;99497.00;;;12.30
70533;BMP180;58088;51.186;17.130;2024-03-02T05:05:50;99504.80;;;12.30
70533;BMP180;58088;51.186;17.130;2024-03-02T05:08:16;99502.60;;;12.30
70533;BMP180;58088;51.186;17.130;2024-03-02T05:10:42;99503.00;;;12.30
70533;BMP180;58088;51.186;17.130;2024-03-02T05:13:08;99501.60;;;12.30
70533;BMP180;58088;51.186;17.130;2024-03-02T05:15:35;99499.00;;;12.30
70533;BMP180;58088;51.186;17.130;2024-03-02T05:18:01;99495.60;;;12.30
70533;BMP180;58088;51.186;17.130;2024-03-02T05:20:31;99498.00;;;12.28
70533;BMP180;58088;51.186;17.130;2024-03-02T05:22:57;99498.40;;;12.20
70533;BMP180;58088;51.186;17.130;2024-03-02T05:25:23;99505.60;;;12.24
70533;BMP180;58088;51.186;17.130;2024-03-02T05:27:49;99502.80;;;12.20
70533;BMP180;58088;51.186;17.130;2024-03-02T05:30:15;99503.80;;;12.20
70533;BMP180;58088;51.186;17.130;2024-03-02T05:32:41;99515.60;;;12.10
70533;BMP180;58088;51.186;17.130;2024-03-02T05:35:08;99518.20;;;12.20
70533;BMP180;58088;51.186;17.130;2024-03-02T05:37:34;99518.40;;;12.18
70533;BMP180;58088;51.186;17.130;2024-03-02T05:40:00;99521.00;;;12.14
70533;BMP180;58088;51.186;17.130;2024-03-02T05:42:27;99515.80;;;12.10
70533;BMP180;58088;51.186;17.130;2024-03-02T05:44:53;99522.00;;;12.10
70533;BMP180;58088;51.186;17.130;2024-03-02T05:47:20;99527.60;;;12.00
70533;BMP180;58088;51.186;17.130;2024-03-02T05:49:46;99523.60;;;12.10
70533;BMP180;58088;51.186;17.130;2024-03-02T05:52:13;99525.20;;;12.10
70533;BMP180;58088;51.186;17.130;2024-03-02T05:54:39;99524.20;;;12.10
70533;BMP180;58088;51.186;17.130;2024-03-02T05:57:05;99524.40;;;12.10
70533;BMP180;58088;51.186;17.130;2024-03-02T05:59:57;99530.00;;;12.10
70533;BMP180;58088;51.186;17.130;2024-03-02T06:02:24;99531.40;;;12.10
70533;BMP180;58088;51.186;17.130;2024-03-02T06:04:50;99536.80;;;12.10
70533;BMP180;58088;51.186;17.130;2024-03-02T06:07:17;99536.40;;;12.10
70533;BMP180;58088;51.186;17.130;2024-03-02T06:09:44;99540.60;;;12.10
70533;BMP180;58088;51.186;17.130;2024-03-02T06:12:10;99537.60;;;12.04
70533;BMP180;58088;51.186;17.130;2024-03-02T06:14:36;99538.00;;;12.10
70533;BMP180;58088;51.186;17.130;2024-03-02T06:17:03;99542.60;;;12.04
70533;BMP180;58088;51.186;17.130;2024-03-02T06:19:29;99546.60;;;12.10
70533;BMP180;58088;51.186;17.130;2024-03-02T06:21:56;99541.60;;;12.08
70533;BMP180;58088;51.186;17.130;2024-03-02T06:24:22;99553.00;;;12.04
70533;BMP180;58088;51.186;17.130;2024-03-02T06:26:48;99555.80;;;12.10
70533;BMP180;58088;51.186;17.130;2024-03-02T06:29:14;99552.40;;;12.10
70533;BMP180;58088;51.186;17.130;2024-03-02T06:31:41;99557.80;;;12.10
70533;BMP180;58088;51.186;17.130;2024-03-02T06:34:07;99559.80;;;12.10
70533;BMP180;58088;51.186;17.130;2024-03-02T06:36:35;99561.20;;;12.10
70533;BMP180;58088;51.186;17.130;2024-03-02T06:39:10;99563.60;;;12.10
70533;BMP180;58088;51.186;17.130;2024-03-02T06:41:38;99564.00;;;12.10
70533;BMP180;58088;51.186;17.130;2024-03-02T06:44:05;99565.40;;;12.10
70533;BMP180;58088;51.186;17.130;2024-03-02T06:46:32;99568.00;;;12.20
70533;BMP180;58088;51.186;17.130;2024-03-02T06:48:58;99576.60;;;12.20
70533;BMP180;58088;51.186;17.130;2024-03-02T06:51:25;99579.20;;;12.20
70533;BMP180;58088;51.186;17.130;2024-03-02T06:53:51;99575.60;;;12.30
70533;BMP180;58088;51.186;17.130;2024-03-02T06:56:17;99574.40;;;12.40
70533;BMP180;58088;51.186;17.130;2024-03-02T06:58:43;99578.40;;;12.40
70533;BMP180;58088;51.186;17.130;2024-03-02T07:01:10;99570.00;;;12.50
70533;BMP180;58088;51.186;17.130;2024-03-02T07:03:36;99572.40;;;12.52
70533;BMP180;58088;51.186;17.130;2024-03-02T07:06:02;99573.80;;;12.70
70533;BMP180;58088;51.186;17.130;2024-03-02T07:08:29;99574.40;;;12.80
70533;BMP180;58088;51.186;17.130;2024-03-02T07:10:55;99578.20;;;12.90
70533;BMP180;58088;51.186;17.130;2024-03-02T07:13:22;99582.80;;;13.00
70533;BMP180;58088;51.186;17.130;2024-03-02T07:15:48;99579.20;;;13.00
70533;BMP180;58088;51.186;17.130;2024-03-02T07:18:32;99585.60;;;13.00
70533;BMP180;58088;51.186;17.130;2024-03-02T07:21:08;99588.00;;;13.10
70533;BMP180;58088;51.186;17.130;2024-03-02T07:23:34;99592.60;;;13.10
70533;BMP180;58088;51.186;17.130;2024-03-02T07:26:01;99597.80;;;13.10
70533;BMP180;58088;51.186;17.130;2024-03-02T07:28:28;99593.40;;;13.16
70533;BMP180;58088;51.186;17.130;2024-03-02T07:31:04;99594.20;;;13.20
70533;BMP180;58088;51.186;17.130;2024-03-02T07:33:30;99589.60;;;13.40
70533;BMP180;58088;51.186;17.130;2024-03-02T07:35:58;99591.60;;;13.50
70533;BMP180;58088;51.186;17.130;2024-03-02T07:38:29;99588.80;;;13.74
70533;BMP180;58088;51.186;17.130;2024-03-02T07:40:55;99593.60;;;14.02
70533;BMP180;58088;51.186;17.130;2024-03-02T07:43:22;99597.40;;;14.30
70533;BMP180;58088;51.186;17.130;2024-03-02T07:45:49;99599.00;;;14.50
70533;BMP180;58088;51.186;17.130;2024-03-02T07:48:15;99605.60;;;14.50
70533;BMP180;58088;51.186;17.130;2024-03-02T07:50:41;99603.60;;;14.50
70533;BMP180;58088;51.186;17.130;2024-03-02T07:53:09;99607.60;;;14.60
70533;BMP180;58088;51.186;17.130;2024-03-02T07:55:35;99602.40;;;14.70
70533;BMP180;58088;51.186;17.130;2024-03-02T07:58:01;99597.40;;;14.80
70533;BMP180;58088;51.186;17.130;2024-03-02T08:00:28;99606.00;;;14.80
70533;BMP180;58088;51.186;17.130;2024-03-02T08:02:55;99607.00;;;14.84
70533;BMP180;58088;51.186;17.130;2024-03-02T08:05:22;99612.20;;;14.86
70533;BMP180;58088;51.186;17.130;2024-03-02T08:07:48;99614.20;;;14.90
70533;BMP180;58088;51.186;17.130;2024-03-02T08:10:18;99613.40;;;15.10
70533;BMP180;58088;51.186;17.130;2024-03-02T08:12:45;99617.80;;;15.10
70533;BMP180;58088;51.186;17.130;2024-03-02T08:15:11;99621.00;;;15.20
70533;BMP180;58088;51.186;17.130;2024-03-02T08:17:41;99622.60;;;15.12
70533;BMP180;58088;51.186;17.130;2024-03-02T08:20:14;99611.00;;;15.22
70533;BMP180;58088;51.186;17.130;2024-03-02T08:22:40;99619.00;;;15.40
70533;BMP180;58088;51.186;17.130;2024-03-02T08:25:07;99614.00;;;15.60
70533;BMP180;58088;51.186;17.130;2024-03-02T08:27:34;99618.20;;;15.70
70533;BMP180;58088;51.186;17.130;2024-03-02T08:30:00;99616.20;;;15.80
70533;BMP180;58088;51.186;17.130;2024-03-02T08:32:26;99612.40;;;15.80
70533;BMP180;58088;51.186;17.130;2024-03-02T08:34:52;99618.00;;;15.90
70533;BMP180;58088;51.186;17.130;2024-03-02T08:37:19;99618.60;;;15.90
70533;BMP180;58088;51.186;17.130;2024-03-02T08:39:46;99604.20;;;16.10
70533;BMP180;58088;51.186;17.130;2024-03-02T08:42:12;99608.80;;;16.20
70533;BMP180;58088;51.186;17.130;2024-03-02T08:44:38;99604.80;;;16.40
70533;BMP180;58088;51.186;17.130;2024-03-02T08:47:04;99599.00;;;16.40
70533;BMP180;58088;51.186;17.130;2024-03-02T08:49:31;99595.80;;;16.50
70533;BMP180;58088;51.186;17.130;2024-03-02T08:51:57;99597.60;;;16.60
70533;BMP180;58088;51.186;17.130;2024-03-02T08:54:23;99604.00;;;16.70
70533;BMP180;58088;51.186;17.130;2024-03-02T08:56:50;99606.40;;;16.70
70533;BMP180;58088;51.186;17.130;2024-03-02T08:59:17;99604.20;;;16.68
70533;BMP180;58088;51.186;17.130;2024-03-02T09:01:43;99599.60;;;16.74
70533;BMP180;58088;51.186;17.130;2024-03-02T09:04:11;99602.20;;;16.90
70533;BMP180;58088;51.186;17.130;2024-03-02T09:06:37;99605.60;;;16.90
70533;BMP180;58088;51.186;17.130;2024-03-02T09:09:04;99601.40;;;17.00
70533;BMP180;58088;51.186;17.130;2024-03-02T09:11:30;99603.60;;;17.00
70533;BMP180;58088;51.186;17.130;2024-03-02T09:13:58;99608.20;;;16.90
70533;BMP180;58088;51.186;17.130;2024-03-02T09:16:25;99606.60;;;16.80
70533;BMP180;58088;51.186;17.130;2024-03-02T09:18:57;99607.20;;;16.80
70533;BMP180;58088;51.186;17.130;2024-03-02T09:21:23;99604.20;;;16.80
70533;BMP180;58088;51.186;17.130;2024-03-02T09:23:51;99600.60;;;16.76
70533;BMP180;58088;51.186;17.130;2024-03-02T09:26:17;99599.40;;;16.78
70533;BMP180;58088;51.186;17.130;2024-03-02T09:28:45;99607.60;;;16.80
70533;BMP180;58088;51.186;17.130;2024-03-02T09:31:12;99605.20;;;16.90
70533;BMP180;58088;51.186;17.130;2024-03-02T09:33:38;99605.40;;;16.90
70533;BMP180;58088;51.186;17.130;2024-03-02T09:36:05;99604.80;;;16.80
70533;BMP180;58088;51.186;17.130;2024-03-02T09:38:32;99604.00;;;16.80
70533;BMP180;58088;51.186;17.130;2024-03-02T09:41:00;99612.00;;;16.80
70533;BMP180;58088;51.186;17.130;2024-03-02T09:43:27;99610.40;;;16.80
70533;BMP180;58088;51.186;17.130;2024-03-02T09:45:54;99609.40;;;16.90
70533;BMP180;58088;51.186;17.130;2024-03-02T09:48:20;99609.60;;;17.00
70533;BMP180;58088;51.186;17.130;2024-03-02T09:50:46;99605.00;;;17.00
70533;BMP180;58088;51.186;17.130;2024-03-02T09:53:14;99601.40;;;17.10
70533;BMP180;58088;51.186;17.130;2024-03-02T09:55:41;99600.40;;;17.16
70533;BMP180;58088;51.186;17.130;2024-03-02T09:58:12;99601.60;;;17.10
70533;BMP180;58088;51.186;17.130;2024-03-02T10:00:38;99601.60;;;17.14
70533;BMP180;58088;51.186;17.130;2024-03-02T10:03:05;99603.40;;;17.20
70533;BMP180;58088;51.186;17.130;2024-03-02T10:05:31;99606.60;;;17.20
70533;BMP180;58088;51.186;17.130;2024-03-02T10:08:02;99605.60;;;17.28
70533;BMP180;58088;51.186;17.130;2024-03-02T10:10:39;99607.60;;;17.30
70533;BMP180;58088;51.186;17.130;2024-03-02T10:13:13;99600.80;;;17.30
70533;BMP180;58088;51.186;17.130;2024-03-02T10:15:41;99599.00;;;17.30
70533;BMP180;58088;51.186;17.130;2024-03-02T10:18:12;99595.80;;;17.40
70533;BMP180;58088;51.186;17.130;2024-03-02T10:20:42;99596.00;;;17.50
70533;BMP180;58088;51.186;17.130;2024-03-02T10:23:17;99590.00;;;17.60
70533;BMP180;58088;51.186;17.130;2024-03-02T10:25:44;99590.40;;;17.60
70533;BMP180;58088;51.186;17.130;2024-03-02T10:28:11;99586.80;;;17.60
70533;BMP180;58088;51.186;17.130;2024-03-02T10:30:37;99584.60;;;17.52
70533;BMP180;58088;51.186;17.130;2024-03-02T10:33:06;99588.00;;;17.54
70533;BMP180;58088;51.186;17.130;2024-03-02T10:35:33;99587.20;;;17.50
70533;BMP180;58088;51.186;17.130;2024-03-02T10:38:04;99585.60;;;17.60
70533;BMP180;58088;51.186;17.130;2024-03-02T10:40:32;99582.80;;;17.60
70533;BMP180;58088;51.186;17.130;2024-03-02T10:43:01;99582.80;;;17.58
70533;BMP180;58088;51.186;17.130;2024-03-02T10:45:29;99578.80;;;17.60
70533;BMP180;58088;51.186;17.130;2024-03-02T10:47:56;99577.40;;;17.60
70533;BMP180;58088;51.186;17.130;2024-03-02T10:50:24;99575.20;;;17.70
70533;BMP180;58088;51.186;17.130;2024-03-02T10:52:50;99575.00;;;17.72
70533;BMP180;58088;51.186;17.130;2024-03-02T10:55:17;99569.80;;;17.70
70533;BMP180;58088;51.186;17.130;2024-03-02T10:57:54;99568.40;;;17.80
70533;BMP180;58088;51.186;17.130;2024-03-02T11:00:25;99570.20;;;17.80
70533;BMP180;58088;51.186;17.130;2024-03-02T11:03:05;99578.20;;;17.80
70533;BMP180;58088;51.186;17.130;2024-03-02T11:05:40;99574.40;;;17.80
70533;BMP180;58088;51.186;17.130;2024-03-02T11:08:13;99574.40;;;17.90
70533;BMP180;58088;51.186;17.130;2024-03-02T11:10:51;99576.60;;;17.90
70533;BMP180;58088;51.186;17.130;2024-03-02T11:13:26;99571.20;;;17.90
70533;BMP180;58088;51.186;17.130;2024-03-02T11:15:59;99585.60;;;17.90
70533;BMP180;58088;51.186;17.130;2024-03-02T11:18:30;99581.20;;;17.94
70533;BMP180;58088;51.186;17.130;2024-03-02T11:20:58;99577.20;;;18.00
70533;BMP180;58088;51.186;17.130;2024-03-02T11:23:35;99579.80;;;18.10
70533;BMP180;58088;51.186;17.130;2024-03-02T11:26:21;99579.60;;;18.10
70533;BMP180;58088;51.186;17.130;2024-03-02T11:28:48;99575.00;;;18.00
70533;BMP180;58088;51.186;17.130;2024-03-02T11:31:14;99573.40;;;18.00
70533;BMP180;58088;51.186;17.130;2024-03-02T11:33:41;99572.60;;;18.00
70533;BMP180;58088;51.186;17.130;2024-03-02T11:36:08;99576.00;;;17.92
70533;BMP180;58088;51.186;17.130;2024-03-02T11:38:35;99570.00;;;17.90
70533;BMP180;58088;51.186;17.130;2024-03-02T11:41:11;99568.20;;;17.90
70533;BMP180;58088;51.186;17.130;2024-03-02T11:43:38;99569.80;;;17.90
70533;BMP180;58088;51.186;17.130;2024-03-02T11:46:10;99563.40;;;17.90
70533;BMP180;58088;51.186;17.130;2024-03-02T11:48:39;99570.20;;;17.90
70533;BMP180;58088;51.186;17.130;2024-03-02T11:51:05;99567.80;;;17.90
70533;BMP180;58088;51.186;17.130;2024-03-02T11:53:33;99569.40;;;18.00
70533;BMP180;58088;51.186;17.130;2024-03-02T11:56:01;99576.00;;;18.00
70533;BMP180;58088;51.186;17.130;2024-03-02T11:58:28;99572.40;;;17.96
70533;BMP180;58088;51.186;17.130;2024-03-02T12:00:55;99571.60;;;17.98
70533;BMP180;58088;51.186;17.130;2024-03-02T12:03:24;99566.80;;;17.90
70533;BMP180;58088;51.186;17.130;2024-03-02T12:05:55;99567.20;;;17.90
70533;BMP180;58088;51.186;17.130;2024-03-02T12:08:22;99569.20;;;17.90
70533;BMP180;58088;51.186;17.130;2024-03-02T12:11:01;99574.80;;;17.90
70533;BMP180;58088;51.186;17.130;2024-03-02T12:13:27;99574.60;;;17.90
70533;BMP180;58088;51.186;17.130;2024-03-02T12:15:55;99574.40;;;17.90
70533;BMP180;58088;51.186;17.130;2024-03-02T12:18:24;99567.60;;;18.00
70533;BMP180;58088;51.186;17.130;2024-03-02T12:20:52;99561.40;;;18.00
70533;BMP180;58088;51.186;17.130;2024-03-02T12:23:18;99566.00;;;18.02
70533;BMP180;58088;51.186;17.130;2024-03-02T12:25:46;99570.80;;;18.00
70533;BMP180;58088;51.186;17.130;2024-03-02T12:28:12;99568.80;;;18.00
70533;BMP180;58088;51.186;17.130;2024-03-02T12:30:39;99569.20;;;18.02
70533;BMP180;58088;51.186;17.130;2024-03-02T12:33:05;99566.60;;;18.10
70533;BMP180;58088;51.186;17.130;2024-03-02T12:35:32;99568.40;;;18.10
70533;BMP180;58088;51.186;17.130;2024-03-02T12:37:58;99562.00;;;18.20
70533;BMP180;58088;51.186;17.130;2024-03-02T12:40:24;99557.80;;;18.10
70533;BMP180;58088;51.186;17.130;2024-03-02T12:42:51;99556.60;;;18.20
70533;BMP180;58088;51.186;17.130;2024-03-02T12:45:17;99561.00;;;18.20
70533;BMP180;58088;51.186;17.130;2024-03-02T12:47:53;99554.00;;;18.20
70533;BMP180;58088;51.186;17.130;2024-03-02T12:50:21;99566.00;;;18.20
70533;BMP180;58088;51.186;17.130;2024-03-02T12:52:54;99556.00;;;18.30
70533;BMP180;58088;51.186;17.130;2024-03-02T12:55:22;99559.00;;;18.32
70533;BMP180;58088;51.186;17.130;2024-03-02T12:57:53;99555.60;;;18.40
70533;BMP180;58088;51.186;17.130;2024-03-02T13:00:20;99552.20;;;18.40
70533;BMP180;58088;51.186;17.130;2024-03-02T13:02:47;99554.60;;;18.44
70533;BMP180;58088;51.186;17.130;2024-03-02T13:05:17;99554.80;;;18.50
70533;BMP180;58088;51.186;17.130;2024-03-02T13:07:43;99553.60;;;18.48
70533;BMP180;58088;51.186;17.130;2024-03-02T13:10:12;99555.40;;;18.42
70533;BMP180;58088;51.186;17.130;2024-03-02T13:12:39;99549.60;;;18.40
70533;BMP180;58088;51.186;17.130;2024-03-02T13:15:05;99549.80;;;18.40
70533;BMP180;58088;51.186;17.130;2024-03-02T13:17:35;99546.80;;;18.40
70533;BMP180;58088;51.186;17.130;2024-03-02T13:20:02;99542.80;;;18.40
70533;BMP180;58088;51.186;17.130;2024-03-02T13:22:30;99548.20;;;18.40
70533;BMP180;58088;51.186;17.130;2024-03-02T13:24:56;99546.80;;;18.38
70533;BMP180;58088;51.186;17.130;2024-03-02T13:27:23;99541.80;;;18.30
70533;BMP180;58088;51.186;17.130;2024-03-02T13:29:50;99544.20;;;18.30
70533;BMP180;58088;51.186;17.130;2024-03-02T13:32:16;99534.60;;;18.20
70533;BMP180;58088;51.186;17.130;2024-03-02T13:34:43;99538.00;;;18.20
70533;BMP180;58088;51.186;17.130;2024-03-02T13:37:09;99535.40;;;18.20
70533;BMP180;58088;51.186;17.130;2024-03-02T13:39:36;99540.40;;;18.20
70533;BMP180;58088;51.186;17.130;2024-03-02T13:42:10;99545.00;;;18.20
70533;BMP180;58088;51.186;17.130;2024-03-02T13:44:37;99541.20;;;18.24
70533;BMP180;58088;51.186;17.130;2024-03-02T13:47:04;99541.80;;;18.30
70533;BMP180;58088;51.186;17.130;2024-03-02T13:49:32;99547.00;;;18.40
70533;BMP180;58088;51.186;17.130;2024-03-02T13:52:09;99553.20;;;18.40
70533;BMP180;58088;51.186;17.130;2024-03-02T13:54:45;99551.40;;;18.40
70533;BMP180;58088;51.186;17.130;2024-03-02T13:57:12;99552.20;;;18.44
70533;BMP180;58088;51.186;17.130;2024-03-02T13:59:41;99557.00;;;18.40
70533;BMP180;58088;51.186;17.130;2024-03-02T14:02:08;99562.40;;;18.40
70533;BMP180;58088;51.186;17.130;2024-03-02T14:04:35;99561.80;;;18.32